Time;durP1;ratioP1;P1;durP2;ratioP2;P2;SDS_P1;SDS_P2;PMS_P1;PMS_P2;Temp;Humidity;BMP_temperature;BMP_pressure;BME280_temperature;BME280_humidity;BME280_pressure;Samples;Min_cycle;Max_cycle;Signal;HPM_P1;HPM_P2
2022/09/17 00:00:22;;;;;;;3.57;2.57;;;11.40;99.90;;;;;;5029745;28;20208;-48
2022/09/17 00:02:54;;;;;;;2.60;2.50;;;11.50;99.90;;;;;;5026928;28;20216;-48
2022/09/17 00:05:23;;;;;;;2.50;2.37;;;11.50;99.90;;;;;;5030745;28;20222;-47
2022/09/17 00:07:50;;;;;;;4.73;2.30;;;11.40;99.90;;;;;;5029227;28;20256;-48
2022/09/17 00:10:18;;;;;;;1.73;1.63;;;11.40;99.90;;;;;;5031567;28;20201;-48
2022/09/17 00:12:47;;;;;;;2.23;1.70;;;11.50;99.90;;;;;;5028267;28;20205;-47
2022/09/17 00:15:14;;;;;;;1.20;0.93;;;11.30;99.90;;;;;;5026076;28;20201;-48
2022/09/17 00:17:42;;;;;;;4.43;1.07;;;11.30;99.90;;;;;;5029583;28;20245;-49
2022/09/17 00:20:10;;;;;;;1.17;0.97;;;11.30;99.90;;;;;;5030234;28;20213;-47
2022/09/17 00:22:37;;;;;;;1.27;1.17;;;11.30;99.90;;;;;;5030775;28;20209;-47
2022/09/17 00:25:05;;;;;;;0.90;0.90;;;11.30;99.90;;;;;;5031425;28;20225;-49
2022/09/17 00:27:33;;;;;;;0.70;0.70;;;11.20;99.90;;;;;;5029786;28;20222;-49
2022/09/17 00:30:01;;;;;;;2.40;1.10;;;11.10;99.90;;;;;;5027159;28;20209;-47
2022/09/17 00:32:28;;;;;;;1.25;1.17;;;11.10;99.90;;;;;;5025692;28;20461;-48
2022/09/17 00:34:55;;;;;;;3.23;0.90;;;11.10;99.90;;;;;;5033487;28;20204;-48
2022/09/17 00:37:22;;;;;;;0.70;0.70;;;11.10;99.90;;;;;;5034086;28;20228;-48
2022/09/17 00:39:49;;;;;;;1.23;0.80;;;11.00;99.90;;;;;;5034173;28;20203;-47
2022/09/17 00:42:19;;;;;;;2.07;0.60;;;11.00;99.90;;;;;;5034202;28;20259;-48
2022/09/17 00:44:49;;;;;;;0.50;0.50;;;11.00;99.90;;;;;;5033204;28;20225;-47
2022/09/17 00:47:23;;;;;;;0.50;0.50;;;11.00;99.90;;;;;;5032462;28;20320;-49
2022/09/17 00:49:54;;;;;;;0.50;0.50;;;10.90;99.90;;;;;;5032696;28;20200;-47
2022/09/17 00:52:26;;;;;;;2.00;0.77;;;10.90;99.90;;;;;;5034497;28;20290;-47
2022/09/17 00:54:58;;;;;;;0.73;0.73;;;10.90;99.90;;;;;;5032697;28;20209;-47
2022/09/17 00:57:25;;;;;;;0.60;0.60;;;10.90;99.90;;;;;;5032534;28;20278;-47
2022/09/17 00:59:53;;;;;;;0.70;0.70;;;10.90;99.90;;;;;;5035191;28;20245;-48
2022/09/17 01:02:22;;;;;;;0.73;0.60;;;10.80;99.90;;;;;;5032427;28;20626;-48
2022/09/17 01:04:50;;;;;;;0.70;0.40;;;10.70;99.90;;;;;;5031326;28;20764;-49
2022/09/17 01:07:31;;;;;;;0.50;0.50;;;10.80;99.90;;;;;;5033389;28;20224;-48
2022/09/17 01:10:04;;;;;;;1.83;0.60;;;10.90;99.90;;;;;;5033853;28;20201;-47
2022/09/17 01:12:45;;;;;;;0.93;0.93;;;10.90;99.90;;;;;;5024840;28;20201;-48
2022/09/17 01:15:26;;;;;;;0.40;0.40;;;11.00;99.90;;;;;;5017047;28;21230;-48
2022/09/17 01:18:07;;;;;;;0.80;0.40;;;11.00;99.90;;;;;;5032306;28;20294;-47
2022/09/17 01:21:09;;;;;;;0.37;0.37;;;10.90;99.90;;;;;;5031309;28;20205;-48
2022/09/17 01:24:06;;;;;;;0.40;0.40;;;10.90;99.90;;;;;;5024858;28;20634;-48
2022/09/17 01:27:00;;;;;;;0.30;0.30;;;10.90;99.90;;;;;;5030256;28;20211;-48
2022/09/17 01:29:49;;;;;;;0.40;0.40;;;10.80;99.90;;;;;;5033567;28;20284;-48
2022/09/17 01:32:25;;;;;;;0.40;0.40;;;10.80;99.90;;;;;;5033459;28;20205;-47
2022/09/17 01:34:59;;;;;;;0.40;0.40;;;10.80;99.90;;;;;;5025142;28;20207;-48
2022/09/17 01:37:34;;;;;;;0.27;0.27;;;10.70;99.90;;;;;;5031885;28;20275;-48
2022/09/17 01:40:06;;;;;;;0.63;0.30;;;10.70;99.90;;;;;;5034592;28;20233;-49
2022/09/17 01:42:39;;;;;;;0.30;0.30;;;10.70;99.90;;;;;;5032301;28;20215;-49
2022/09/17 01:45:11;;;;;;;0.20;0.20;;;10.70;99.90;;;;;;5029992;28;20340;-48
2022/09/17 01:47:44;;;;;;;0.60;0.30;;;10.70;99.90;;;;;;5034041;28;20217;-48
2022/09/17 01:50:16;;;;;;;0.50;0.50;;;10.70;99.90;;;;;;5031712;28;20228;-48
2022/09/17 01:52:46;;;;;;;0.40;0.33;;;10.70;99.90;;;;;;5033474;28;20208;-47
2022/09/17 01:55:15;;;;;;;0.30;0.30;;;10.70;99.90;;;;;;5033906;28;20192;-48
2022/09/17 01:57:48;;;;;;;0.20;0.20;;;10.80;99.90;;;;;;5032215;28;20286;-47
2022/09/17 02:00:17;;;;;;;0.37;0.20;;;10.90;99.90;;;;;;5027966;28;20209;-48
2022/09/17 02:02:50;;;;;;;0.60;0.33;;;10.80;99.90;;;;;;5031774;28;20197;-48
2022/09/17 02:05:21;;;;;;;1.13;0.40;;;10.70;99.90;;;;;;5032339;28;20223;-47
2022/09/17 02:07:55;;;;;;;0.30;0.30;;;10.70;99.90;;;;;;5025623;28;20371;-48
2022/09/17 02:10:26;;;;;;;0.87;0.40;;;10.70;99.90;;;;;;5024557;28;20622;-48
2022/09/17 02:12:59;;;;;;;0.43;0.43;;;10.80;99.90;;;;;;5031633;28;20273;-47
2022/09/17 02:15:31;;;;;;;1.43;0.53;;;10.80;99.90;;;;;;5033052;28;20202;-48
2022/09/17 02:18:03;;;;;;;0.67;0.67;;;10.80;99.90;;;;;;5031727;28;20224;-47
2022/09/17 02:20:41;;;;;;;0.50;0.50;;;10.60;99.90;;;;;;5029958;28;20202;-48
2022/09/17 02:23:14;;;;;;;3.13;2.07;;;10.50;99.90;;;;;;5033510;28;20618;-48
2022/09/17 02:25:49;;;;;;;4.43;3.30;;;10.50;99.90;;;;;;5031529;28;20223;-49
2022/09/17 02:28:25;;;;;;;3.83;3.53;;;10.50;99.90;;;;;;5022585;28;20296;-47
2022/09/17 02:30:52;;;;;;;2.40;1.03;;;10.50;99.90;;;;;;5030538;28;20290;-48
2022/09/17 02:33:23;;;;;;;0.77;0.77;;;10.40;99.90;;;;;;5032336;28;20205;-47
2022/09/17 02:35:50;;;;;;;0.60;0.60;;;10.30;99.90;;;;;;5031531;28;20204;-47
2022/09/17 02:38:23;;;;;;;0.67;0.50;;;10.30;99.90;;;;;;5033017;28;20263;-48
2022/09/17 02:40:55;;;;;;;0.30;0.30;;;10.20;99.90;;;;;;5031080;28;20299;-49
2022/09/17 02:43:34;;;;;;;0.50;0.50;;;10.10;99.90;;;;;;5025306;28;20213;-48
2022/09/17 02:46:14;;;;;;;0.33;0.33;;;10.10;99.90;;;;;;5030476;28;20265;-47
2022/09/17 02:49:00;;;;;;;0.40;0.40;;;10.00;99.90;;;;;;5029854;28;20232;-47
2022/09/17 02:51:35;;;;;;;0.30;0.30;;;10.00;99.90;;;;;;5029341;28;20565;-48
2022/09/17 02:54:16;;;;;;;0.37;0.37;;;10.10;99.90;;;;;;5031986;28;20202;-48
2022/09/17 02:56:50;;;;;;;0.30;0.30;;;10.20;99.90;;;;;;5021488;28;20799;-48
2022/09/17 02:59:23;;;;;;;0.20;0.20;;;10.20;99.90;;;;;;5023671;28;20211;-48
2022/09/17 03:01:57;;;;;;;0.30;0.30;;;10.30;99.90;;;;;;5023745;28;20200;-47
2022/09/17 03:04:27;;;;;;;0.30;0.30;;;10.30;99.90;;;;;;5017739;28;20202;-48
2022/09/17 03:06:57;;;;;;;0.30;0.30;;;10.20;99.90;;;;;;5032246;28;20288;-48
2022/09/17 03:09:24;;;;;;;0.20;0.20;;;10.20;99.90;;;;;;5031668;28;20208;-47
2022/09/17 03:11:51;;;;;;;0.20;0.20;;;10.20;99.90;;;;;;5032290;28;20614;-47
2022/09/17 03:14:19;;;;;;;0.90;0.10;;;10.10;99.90;;;;;;5032254;28;20271;-47
2022/09/17 03:16:46;;;;;;;0.07;0.07;;;10.00;99.90;;;;;;5032577;28;20208;-48
2022/09/17 03:19:13;;;;;;;1.80;0.20;;;10.10;99.90;;;;;;5032336;28;20202;-49
2022/09/17 03:21:42;;;;;;;0.10;0.10;;;9.90;99.90;;;;;;5031097;28;20270;-47
2022/09/17 03:24:10;;;;;;;0.10;0.10;;;9.90;99.90;;;;;;5031339;28;20636;-47
2022/09/17 03:26:37;;;;;;;0.37;0.10;;;10.00;99.90;;;;;;5029269;28;20251;-47
2022/09/17 03:29:04;;;;;;;0.10;0.10;;;10.00;99.90;;;;;;5031350;28;20296;-49
2022/09/17 03:31:31;;;;;;;0.10;0.10;;;9.90;99.90;;;;;;5033043;28;20629;-48
2022/09/17 03:33:58;;;;;;;0.33;0.17;;;9.90;99.90;;;;;;5031891;28;20304;-48
2022/09/17 03:36:25;;;;;;;0.10;0.10;;;9.90;99.90;;;;;;5030181;28;20222;-48
2022/09/17 03:38:55;;;;;;;0.10;0.10;;;10.00;99.90;;;;;;5030363;28;20228;-47
2022/09/17 03:41:23;;;;;;;0.10;0.10;;;9.80;99.90;;;;;;5031687;28;20623;-48
2022/09/17 03:43:50;;;;;;;0.10;0.10;;;9.70;99.90;;;;;;5030956;28;20206;-48
2022/09/17 03:46:17;;;;;;;0.10;0.10;;;9.70;99.90;;;;;;5023629;28;20757;-48
2022/09/17 03:48:44;;;;;;;4.43;0.20;;;9.70;99.90;;;;;;5031769;28;20299;-49
2022/09/17 03:51:12;;;;;;;0.10;0.10;;;9.70;99.90;;;;;;5030900;28;20201;-48
2022/09/17 03:53:39;;;;;;;0.13;0.13;;;9.70;99.90;;;;;;5022536;28;20327;-48
2022/09/17 03:56:08;;;;;;;1.13;0.30;;;9.80;99.90;;;;;;5031675;28;20263;-48
2022/09/17 03:58:35;;;;;;;0.50;0.30;;;9.90;99.90;;;;;;5031735;28;20225;-48
2022/09/17 04:01:03;;;;;;;0.30;0.30;;;9.90;99.90;;;;;;5030993;28;20289;-48
2022/09/17 04:03:31;;;;;;;0.20;0.20;;;9.90;99.90;;;;;;5023790;28;20208;-49
2022/09/17 04:05:58;;;;;;;0.23;0.23;;;9.80;99.90;;;;;;5031506;28;20217;-48
2022/09/17 04:08:25;;;;;;;0.33;0.33;;;9.70;99.90;;;;;;5035379;28;20220;-47
2022/09/17 04:10:52;;;;;;;0.30;0.30;;;9.80;99.90;;;;;;5026371;28;20671;-48
2022/09/17 04:13:21;;;;;;;1.43;0.20;;;9.80;99.90;;;;;;5034744;28;20228;-49
2022/09/17 04:15:48;;;;;;;0.30;0.30;;;9.80;99.90;;;;;;5034409;28;20202;-48
2022/09/17 04:18:15;;;;;;;0.30;0.30;;;9.70;99.90;;;;;;5035399;28;20222;-47
2022/09/17 04:20:43;;;;;;;0.30;0.30;;;9.80;99.90;;;;;;5035184;28;20266;-49
2022/09/17 04:23:11;;;;;;;0.50;0.50;;;9.80;99.90;;;;;;5034245;28;20597;-48
2022/09/17 04:25:38;;;;;;;0.53;0.53;;;9.80;99.90;;;;;;5034429;28;20780;-47
2022/09/17 04:28:05;;;;;;;0.40;0.40;;;9.80;99.90;;;;;;5025959;28;20222;-47
2022/09/17 04:30:33;;;;;;;0.83;0.50;;;9.80;99.90;;;;;;5034628;28;20213;-47
2022/09/17 04:33:01;;;;;;;0.50;0.40;;;9.80;99.90;;;;;;5035628;28;20206;-48
2022/09/17 04:35:28;;;;;;;0.90;0.40;;;9.80;99.90;;;;;;5033940;28;20194;-48
2022/09/17 04:37:55;;;;;;;0.57;0.40;;;9.80;99.90;;;;;;5034718;28;20236;-48
2022/09/17 04:40:22;;;;;;;0.40;0.40;;;9.80;99.90;;;;;;5035065;28;20259;-48
2022/09/17 04:42:52;;;;;;;0.97;0.40;;;9.80;99.90;;;;;;5032673;28;20292;-48
2022/09/17 04:45:19;;;;;;;2.30;0.40;;;9.80;99.90;;;;;;5032128;28;20225;-47
2022/09/17 04:47:49;;;;;;;0.43;0.40;;;9.80;99.90;;;;;;5034657;28;20221;-48
2022/09/17 04:50:17;;;;;;;0.40;0.40;;;9.80;99.90;;;;;;5035336;28;20208;-47
2022/09/17 04:52:44;;;;;;;2.67;0.80;;;9.70;99.90;;;;;;5034736;28;20206;-48
2022/09/17 04:55:12;;;;;;;0.50;0.50;;;9.80;99.90;;;;;;5034325;28;20208;-48
2022/09/17 04:57:39;;;;;;;1.00;0.50;;;9.70;99.90;;;;;;5034749;28;20229;-48
2022/09/17 05:00:08;;;;;;;0.50;0.50;;;9.70;99.90;;;;;;5029486;28;20206;-48
2022/09/17 05:02:35;;;;;;;0.70;0.70;;;9.70;99.90;;;;;;5030880;28;20220;-48
2022/09/17 05:05:04;;;;;;;0.83;0.83;;;9.70;99.90;;;;;;5031355;28;20200;-46
2022/09/17 05:07:31;;;;;;;0.73;0.70;;;9.70;99.90;;;;;;5032546;28;20282;-48
2022/09/17 05:09:58;;;;;;;0.50;0.50;;;9.60;99.90;;;;;;5031797;28;20698;-49
2022/09/17 05:12:25;;;;;;;0.67;0.67;;;9.60;99.90;;;;;;5024945;28;20728;-48
2022/09/17 05:14:52;;;;;;;0.50;0.50;;;9.60;99.90;;;;;;5025052;28;20205;-48
2022/09/17 05:17:19;;;;;;;0.77;0.77;;;9.60;99.90;;;;;;5032220;28;20278;-48
2022/09/17 05:19:46;;;;;;;0.90;0.90;;;9.60;99.90;;;;;;5025906;28;20300;-48
2022/09/17 05:22:14;;;;;;;0.60;0.60;;;9.60;99.90;;;;;;5029208;28;20622;-49
2022/09/17 05:24:42;;;;;;;0.60;0.60;;;9.60;99.90;;;;;;5030699;28;20675;-47
2022/09/17 05:27:10;;;;;;;2.97;0.40;;;9.60;99.90;;;;;;5029158;28;20315;-48
2022/09/17 05:29:37;;;;;;;0.60;0.60;;;9.60;99.90;;;;;;5031784;28;20323;-47
2022/09/17 05:32:04;;;;;;;0.50;0.50;;;9.60;99.90;;;;;;5029315;28;20208;-48
2022/09/17 05:34:31;;;;;;;0.60;0.60;;;9.60;99.90;;;;;;5031005;28;20220;-48
2022/09/17 05:36:59;;;;;;;0.60;0.40;;;9.70;99.90;;;;;;5029052;28;20299;-48
2022/09/17 05:39:27;;;;;;;1.30;0.50;;;9.60;99.90;;;;;;5027793;28;20286;-48
2022/09/17 05:41:55;;;;;;;1.03;0.60;;;9.70;99.90;;;;;;5028262;28;20201;-47
2022/09/17 05:44:22;;;;;;;1.97;1.33;;;9.70;99.90;;;;;;5031562;28;20207;-48
2022/09/17 05:46:49;;;;;;;0.40;0.40;;;9.80;99.90;;;;;;5028057;28;20225;-48
2022/09/17 05:49:16;;;;;;;1.50;1.00;;;9.90;99.90;;;;;;5029343;28;20252;-48
2022/09/17 05:51:43;;;;;;;1.53;0.80;;;9.80;99.90;;;;;;5031952;28;20198;-49
2022/09/17 05:54:10;;;;;;;4.93;4.43;;;9.90;99.90;;;;;;5033349;28;20204;-48
2022/09/17 05:56:39;;;;;;;2.23;2.03;;;9.80;99.90;;;;;;5032840;28;20197;-48
2022/09/17 05:59:05;;;;;;;1.20;1.20;;;9.80;99.90;;;;;;5033313;28;20228;-47
2022/09/17 06:01:33;;;;;;;0.80;0.80;;;9.90;99.90;;;;;;5029999;28;20206;-47
2022/09/17 06:04:02;;;;;;;1.13;0.80;;;9.90;99.90;;;;;;5026784;28;20201;-48
2022/09/17 06:06:29;;;;;;;0.93;0.93;;;9.90;99.90;;;;;;5033188;28;20224;-47
2022/09/17 06:08:59;;;;;;;1.23;0.83;;;9.90;99.90;;;;;;5033108;28;20764;-47
2022/09/17 06:11:26;;;;;;;0.70;0.70;;;9.90;99.90;;;;;;5032112;28;20660;-49
2022/09/17 06:13:54;;;;;;;1.27;1.03;;;9.90;99.90;;;;;;5030158;28;20204;-49
2022/09/17 06:16:22;;;;;;;1.23;0.90;;;10.00;99.90;;;;;;5032435;28;20844;-48
2022/09/17 06:18:49;;;;;;;0.77;0.77;;;10.00;99.90;;;;;;5032606;28;20256;-47
2022/09/17 06:21:17;;;;;;;0.50;0.50;;;10.00;99.90;;;;;;5032222;28;20256;-47
2022/09/17 06:23:44;;;;;;;2.97;0.93;;;10.10;99.90;;;;;;5022278;28;20643;-47
2022/09/17 06:26:11;;;;;;;4.17;3.87;;;10.10;99.90;;;;;;5032818;28;20233;-48
2022/09/17 06:28:39;;;;;;;5.83;5.33;;;10.20;99.90;;;;;;5032797;28;20724;-47
2022/09/17 06:31:09;;;;;;;5.97;5.57;;;10.30;99.90;;;;;;5027135;28;20578;-47
2022/09/17 06:33:36;;;;;;;5.90;3.47;;;10.30;99.90;;;;;;5030768;28;20210;-48
2022/09/17 06:36:06;;;;;;;1.80;1.70;;;10.30;99.90;;;;;;5030470;28;20239;-48
2022/09/17 06:38:35;;;;;;;2.93;2.80;;;10.30;99.90;;;;;;5031943;28;20218;-48
2022/09/17 06:41:02;;;;;;;1.63;1.53;;;10.40;99.90;;;;;;5019932;28;20212;-49
2022/09/17 06:43:30;;;;;;;1.80;1.70;;;10.40;99.90;;;;;;5032586;28;20267;-48
2022/09/17 06:45:59;;;;;;;2.30;2.20;;;10.50;99.90;;;;;;5031403;28;20221;-48
2022/09/17 06:48:30;;;;;;;2.30;2.20;;;10.50;99.90;;;;;;5031594;28;20706;-49
2022/09/17 06:51:02;;;;;;;1.80;0.97;;;10.60;99.90;;;;;;5031622;28;20204;-48
2022/09/17 06:53:30;;;;;;;0.90;0.73;;;10.70;99.90;;;;;;5030089;28;20205;-47
2022/09/17 06:55:58;;;;;;;1.23;0.70;;;10.70;99.90;;;;;;5032346;28;20258;-47
2022/09/17 06:58:29;;;;;;;1.00;0.93;;;10.70;99.90;;;;;;5031052;28;20315;-48
2022/09/17 07:00:58;;;;;;;1.40;0.70;;;10.70;99.90;;;;;;5029115;28;20627;-49
2022/09/17 07:03:27;;;;;;;0.70;0.70;;;10.60;99.90;;;;;;5032151;28;20307;-48
2022/09/17 07:05:54;;;;;;;0.70;0.40;;;10.60;99.90;;;;;;5030455;28;20674;-49
2022/09/17 07:08:24;;;;;;;0.27;0.27;;;10.70;99.90;;;;;;5023323;28;20225;-48
2022/09/17 07:10:54;;;;;;;32.90;19.17;;;10.70;99.90;;;;;;5027421;28;20205;-48
2022/09/17 07:13:25;;;;;;;12.17;6.60;;;10.80;99.90;;;;;;5024363;28;20704;-47
2022/09/17 07:15:54;;;;;;;5.17;2.97;;;10.90;99.90;;;;;;5031703;28;20240;-48
2022/09/17 07:18:24;;;;;;;2.17;1.03;;;10.90;99.90;;;;;;5022594;28;20233;-48
2022/09/17 07:20:57;;;;;;;1.40;0.77;;;10.90;99.90;;;;;;5028137;28;20295;-49
2022/09/17 07:23:27;;;;;;;1.67;1.03;;;11.00;99.90;;;;;;5024696;28;20288;-47
2022/09/17 07:25:55;;;;;;;0.50;0.50;;;11.00;99.90;;;;;;5030720;28;20202;-48
2022/09/17 07:28:25;;;;;;;2.27;1.27;;;10.90;99.90;;;;;;5026474;28;20232;-48
2022/09/17 07:30:52;;;;;;;0.40;0.30;;;10.90;99.90;;;;;;5031473;28;20227;-48
2022/09/17 07:33:27;;;;;;;0.40;0.40;;;10.80;99.90;;;;;;5024982;28;20900;-48
2022/09/17 07:35:57;;;;;;;2.83;2.73;;;10.90;99.90;;;;;;5026060;28;20209;-47
2022/09/17 07:38:25;;;;;;;3.60;3.47;;;10.80;99.90;;;;;;5028578;28;20678;-47
2022/09/17 07:40:59;;;;;;;1.80;1.73;;;10.80;99.90;;;;;;5028339;28;20207;-48
2022/09/17 07:43:27;;;;;;;1.87;1.77;;;10.80;99.90;;;;;;5029659;28;20210;-48
2022/09/17 07:45:56;;;;;;;0.73;0.73;;;10.70;99.90;;;;;;5029494;28;20209;-48
2022/09/17 07:48:27;;;;;;;0.73;0.73;;;10.60;99.90;;;;;;5029405;28;20214;-47
2022/09/17 07:50:55;;;;;;;0.50;0.43;;;10.70;99.90;;;;;;5027243;28;20209;-48
2022/09/17 07:53:26;;;;;;;1.07;0.20;;;10.70;99.90;;;;;;5028554;28;20260;-48
2022/09/17 07:55:54;;;;;;;0.20;0.20;;;10.70;99.90;;;;;;5024661;28;20205;-48
2022/09/17 07:58:22;;;;;;;1.40;0.30;;;10.70;99.90;;;;;;5027529;28;20267;-48
2022/09/17 08:00:49;;;;;;;0.60;0.60;;;10.60;99.90;;;;;;5027452;28;20212;-48
2022/09/17 08:03:16;;;;;;;0.47;0.20;;;10.40;99.90;;;;;;5024555;28;20212;-48
2022/09/17 08:05:43;;;;;;;0.23;0.23;;;10.40;99.90;;;;;;5017257;28;20231;-48
2022/09/17 08:08:13;;;;;;;0.83;0.30;;;10.50;99.90;;;;;;5030858;28;20217;-48
2022/09/17 08:10:40;;;;;;;0.83;0.20;;;10.60;99.90;;;;;;5031678;28;20209;-48
2022/09/17 08:13:08;;;;;;;1.60;0.30;;;10.60;99.90;;;;;;5029515;28;20208;-48
2022/09/17 08:15:35;;;;;;;0.10;0.10;;;10.60;99.90;;;;;;5030261;28;20210;-48
2022/09/17 08:18:02;;;;;;;1.53;0.20;;;10.80;99.90;;;;;;5025623;28;20275;-48
2022/09/17 08:20:29;;;;;;;1.60;0.47;;;10.80;99.90;;;;;;5023172;28;20210;-48
2022/09/17 08:22:59;;;;;;;0.37;0.37;;;10.80;99.90;;;;;;5028155;28;20208;-48
2022/09/17 08:25:28;;;;;;;2.37;0.20;;;10.90;99.90;;;;;;5026403;28;20297;-48
2022/09/17 08:27:55;;;;;;;0.20;0.10;;;11.00;99.90;;;;;;5027477;28;20279;-48
2022/09/17 08:30:23;;;;;;;1.90;0.20;;;11.20;99.90;;;;;;5027131;28;20220;-48
2022/09/17 08:32:50;;;;;;;0.43;0.23;;;11.40;99.90;;;;;;5027249;28;20638;-48
2022/09/17 08:35:17;;;;;;;2.00;0.30;;;11.50;99.90;;;;;;5026611;28;20561;-47
2022/09/17 08:37:45;;;;;;;1.03;0.10;;;11.60;99.90;;;;;;5029067;28;20754;-48
2022/09/17 08:40:21;;;;;;;0.20;0.20;;;11.50;99.90;;;;;;5028400;28;20214;-48
2022/09/17 08:42:56;;;;;;;1.20;0.37;;;11.50;99.90;;;;;;5028246;28;20258;-48
2022/09/17 08:45:24;;;;;;;2.53;0.20;;;11.50;99.90;;;;;;5024233;28;20267;-49
2022/09/17 08:47:54;;;;;;;0.53;0.23;;;11.60;99.90;;;;;;5030073;28;20921;-48
2022/09/17 08:50:28;;;;;;;1.40;0.33;;;11.70;99.90;;;;;;5029434;28;20201;-48
2022/09/17 08:53:16;;;;;;;3.20;0.30;;;12.00;99.90;;;;;;5029635;28;20661;-48
2022/09/17 08:55:47;;;;;;;2.13;0.30;;;12.20;99.90;;;;;;5032155;28;20209;-48
2022/09/17 08:58:39;;;;;;;0.73;0.30;;;12.90;99.90;;;;;;5026855;28;20239;-47
2022/09/17 09:01:23;;;;;;;3.97;0.63;;;14.10;99.90;;;;;;5024670;28;20220;-48
2022/09/17 09:04:18;;;;;;;0.20;0.20;;;14.60;99.90;;;;;;5032573;28;20220;-48
2022/09/17 09:06:49;;;;;;;0.93;0.20;;;14.70;99.90;;;;;;5030543;28;20222;-50
2022/09/17 09:09:18;;;;;;;1.30;0.20;;;14.90;99.90;;;;;;5032456;28;20281;-48
2022/09/17 09:11:47;;;;;;;0.20;0.20;;;14.80;99.90;;;;;;5029823;28;20221;-49
2022/09/17 09:14:20;;;;;;;3.30;0.30;;;14.70;99.90;;;;;;5027467;28;20209;-49
2022/09/17 09:16:49;;;;;;;0.63;0.10;;;14.50;99.90;;;;;;5030996;28;20197;-49
2022/09/17 09:19:22;;;;;;;1.13;0.20;;;14.30;99.90;;;;;;5032930;28;20206;-49
2022/09/17 09:22:04;;;;;;;2.20;0.20;;;14.10;99.90;;;;;;5033684;28;20200;-48
2022/09/17 09:24:41;;;;;;;0.50;0.50;;;14.00;99.90;;;;;;5030805;28;20241;-49
2022/09/17 09:27:17;;;;;;;0.40;0.40;;;14.00;99.90;;;;;;5022774;28;20284;-49
2022/09/17 09:30:02;;;;;;;0.43;0.27;;;14.20;99.90;;;;;;5032584;28;20245;-49
2022/09/17 09:32:45;;;;;;;1.67;0.20;;;14.20;99.90;;;;;;5027687;28;20217;-49
2022/09/17 09:35:19;;;;;;;0.30;0.30;;;14.40;99.90;;;;;;5024453;28;20199;-48
2022/09/17 09:37:54;;;;;;;1.10;0.20;;;14.40;99.90;;;;;;5024795;28;20220;-49
2022/09/17 09:40:36;;;;;;;0.67;0.20;;;14.60;99.90;;;;;;5026014;28;20730;-49
2022/09/17 09:43:11;;;;;;;1.70;0.20;;;14.70;99.90;;;;;;5024503;28;20206;-49
2022/09/17 09:45:57;;;;;;;1.10;0.27;;;14.80;99.90;;;;;;5024777;28;20209;-49
2022/09/17 09:48:36;;;;;;;0.97;0.20;;;14.90;99.90;;;;;;5025360;28;20241;-48
2022/09/17 09:51:16;;;;;;;0.40;0.20;;;14.70;99.90;;;;;;5025287;28;20225;-48
2022/09/17 09:53:58;;;;;;;1.40;0.20;;;14.80;99.90;;;;;;5023023;28;20202;-48
2022/09/17 09:56:49;;;;;;;1.80;0.20;;;14.80;99.90;;;;;;5028044;28;20198;-49
2022/09/17 09:59:21;;;;;;;0.20;0.13;;;14.10;99.90;;;;;;5030397;28;20202;-48
2022/09/17 10:01:50;;;;;;;1.20;0.10;;;13.80;99.90;;;;;;5029745;28;20572;-49
2022/09/17 10:04:20;;;;;;;2.47;0.80;;;13.60;99.90;;;;;;5027215;28;20207;-49
2022/09/17 10:06:49;;;;;;;0.20;0.20;;;13.60;99.90;;;;;;5029794;28;20213;-48
2022/09/17 10:09:20;;;;;;;2.57;0.20;;;13.50;99.90;;;;;;5026441;28;20614;-48
2022/09/17 10:12:05;;;;;;;1.07;0.20;;;14.20;99.90;;;;;;5029328;28;20206;-49
2022/09/17 10:14:34;;;;;;;0.83;0.20;;;15.40;99.90;;;;;;5029437;28;20256;-49
2022/09/17 10:17:22;;;;;;;0.77;0.20;;;16.60;99.90;;;;;;5028716;28;20604;-48
2022/09/17 10:20:14;;;;;;;0.60;0.20;;;17.20;99.90;;;;;;5029706;28;20627;-49
2022/09/17 10:22:42;;;;;;;0.23;0.23;;;17.30;99.90;;;;;;5031060;28;20207;-49
2022/09/17 10:25:27;;;;;;;0.20;0.20;;;17.20;99.90;;;;;;5032317;28;20627;-48
2022/09/17 10:27:56;;;;;;;1.17;0.30;;;16.50;99.90;;;;;;5032455;28;20637;-48
2022/09/17 10:30:24;;;;;;;1.57;0.27;;;16.10;99.90;;;;;;5032254;28;20226;-49
2022/09/17 10:33:22;;;;;;;0.23;0.23;;;15.50;99.90;;;;;;5030195;28;20202;-48
2022/09/17 10:36:01;;;;;;;0.20;0.20;;;14.90;99.90;;;;;;5029839;28;20202;-48
2022/09/17 10:38:33;;;;;;;0.40;0.27;;;14.30;99.90;;;;;;5028438;28;20226;-47
2022/09/17 10:41:24;;;;;;;0.23;0.23;;;14.10;99.90;;;;;;5028027;28;20202;-48
2022/09/17 10:43:52;;;;;;;0.33;0.20;;;14.20;99.90;;;;;;5022147;28;20297;-49
2022/09/17 10:46:23;;;;;;;0.40;0.20;;;14.70;99.90;;;;;;5030836;28;20612;-48
2022/09/17 10:49:05;;;;;;;1.60;0.20;;;15.00;99.90;;;;;;5031006;28;20863;-49
2022/09/17 10:51:32;;;;;;;1.03;0.30;;;15.00;99.90;;;;;;5026677;28;20233;-48
2022/09/17 10:54:08;;;;;;;0.30;0.30;;;14.90;99.90;;;;;;5027231;28;20599;-47
2022/09/17 10:56:37;;;;;;;0.10;0.10;;;14.60;99.90;;;;;;5027420;28;20191;-48
2022/09/17 10:59:52;;;;;;;0.60;0.20;;;14.40;99.90;;;;;;5025393;28;20650;-48
2022/09/17 11:02:56;;;;;;;1.10;0.63;;;14.20;99.90;;;;;;5012729;28;20668;-48
2022/09/17 11:05:40;;;;;;;0.37;0.20;;;14.10;99.90;;;;;;5032421;28;20202;-48
2022/09/17 11:08:16;;;;;;;0.40;0.20;;;14.00;99.90;;;;;;5032050;28;20276;-48
2022/09/17 11:10:57;;;;;;;0.60;0.10;;;14.00;99.90;;;;;;5031822;28;20210;-49
2022/09/17 11:13:35;;;;;;;0.10;0.10;;;13.90;99.90;;;;;;5031614;28;20206;-49
2022/09/17 11:16:26;;;;;;;0.20;0.20;;;13.90;99.90;;;;;;5030646;28;20680;-49
2022/09/17 11:19:03;;;;;;;0.10;0.10;;;13.90;99.90;;;;;;5029895;28;20222;-48
2022/09/17 11:21:39;;;;;;;0.50;0.20;;;13.90;99.90;;;;;;5022943;28;20210;-48
2022/09/17 11:24:35;;;;;;;0.30;0.30;;;14.10;99.90;;;;;;5011901;28;20203;-49
2022/09/17 11:27:12;;;;;;;1.03;0.20;;;14.20;99.90;;;;;;5031128;28;20209;-49
2022/09/17 11:30:00;;;;;;;0.20;0.20;;;14.30;99.90;;;;;;5027268;28;20560;-48
2022/09/17 11:32:51;;;;;;;0.30;0.30;;;14.40;99.90;;;;;;5024750;28;20199;-49
2022/09/17 11:35:22;;;;;;;0.27;0.27;;;14.40;99.90;;;;;;5031114;28;20672;-49
2022/09/17 11:37:56;;;;;;;1.03;0.23;;;14.20;99.90;;;;;;5033150;28;20213;-48
2022/09/17 11:40:32;;;;;;;0.23;0.20;;;14.00;99.90;;;;;;5036892;28;20206;-49
2022/09/17 11:43:03;;;;;;;0.20;0.20;;;13.90;99.90;;;;;;5027845;28;20552;-47
2022/09/17 11:45:36;;;;;;;0.20;0.20;;;13.50;99.90;;;;;;5025887;28;20207;-48
2022/09/17 11:48:10;;;;;;;0.20;0.20;;;13.30;99.90;;;;;;5031300;28;20252;-48
2022/09/17 11:50:42;;;;;;;0.20;0.20;;;13.00;99.90;;;;;;5030577;28;20205;-48
2022/09/17 11:53:18;;;;;;;0.10;0.10;;;12.90;99.90;;;;;;5030147;28;20590;-48
2022/09/17 11:55:50;;;;;;;0.20;0.20;;;13.00;99.90;;;;;;5026770;28;20206;-48
2022/09/17 11:58:26;;;;;;;0.20;0.20;;;13.20;99.90;;;;;;5025452;28;20268;-49
2022/09/17 12:01:00;;;;;;;0.10;0.10;;;13.30;99.90;;;;;;5030553;28;20206;-48
2022/09/17 12:03:35;;;;;;;0.40;0.20;;;13.30;99.90;;;;;;5031067;28;20208;-48
2022/09/17 12:06:09;;;;;;;1.17;0.30;;;13.00;99.90;;;;;;5031363;28;20204;-48
2022/09/17 12:08:46;;;;;;;0.20;0.20;;;12.80;99.90;;;;;;5031449;28;20232;-48
2022/09/17 12:11:19;;;;;;;0.20;0.20;;;12.30;99.90;;;;;;5024806;28;20195;-48
2022/09/17 12:13:50;;;;;;;0.63;0.20;;;12.00;99.90;;;;;;5030936;28;20201;-48
2022/09/17 12:16:25;;;;;;;0.43;0.20;;;11.90;99.90;;;;;;5031324;28;20240;-49
2022/09/17 12:19:04;;;;;;;1.23;0.40;;;11.70;99.90;;;;;;5028023;28;20292;-48
2022/09/17 12:21:39;;;;;;;0.50;0.20;;;11.70;99.90;;;;;;5030936;28;20253;-47
2022/09/17 12:24:17;;;;;;;0.47;0.20;;;11.50;99.90;;;;;;5022949;28;20193;-49
2022/09/17 12:27:02;;;;;;;0.20;0.20;;;11.60;99.90;;;;;;5028952;28;20198;-48
2022/09/17 12:30:01;;;;;;;0.20;0.20;;;11.60;99.90;;;;;;5027388;28;20219;-48
2022/09/17 12:32:52;;;;;;;1.03;0.30;;;11.60;99.90;;;;;;5023376;28;20203;-48
2022/09/17 12:35:37;;;;;;;0.30;0.30;;;11.70;99.90;;;;;;5028349;28;20255;-48
2022/09/17 12:38:22;;;;;;;1.23;0.50;;;11.70;99.90;;;;;;5028358;28;20280;-47
2022/09/17 12:40:58;;;;;;;1.23;0.40;;;11.70;99.90;;;;;;5033411;28;20675;-48
2022/09/17 12:43:48;;;;;;;2.20;0.70;;;11.80;99.90;;;;;;5034429;28;20210;-49
2022/09/17 12:46:28;;;;;;;1.53;0.50;;;11.70;99.90;;;;;;5037949;28;20687;-48
2022/09/17 12:49:27;;;;;;;0.50;0.50;;;11.70;99.90;;;;;;5027592;28;20700;-47
2022/09/17 12:51:57;;;;;;;1.00;1.00;;;11.60;99.90;;;;;;5029037;28;20227;-48
2022/09/17 12:54:44;;;;;;;1.67;0.73;;;11.40;99.90;;;;;;5025102;28;20215;-47
2022/09/17 12:57:23;;;;;;;0.60;0.60;;;11.20;99.90;;;;;;5019969;28;20225;-47
2022/09/17 12:59:57;;;;;;;3.27;0.73;;;11.10;99.90;;;;;;5027007;28;20247;-47
2022/09/17 13:02:30;;;;;;;0.50;0.50;;;11.10;99.90;;;;;;5034139;28;20209;-47
2022/09/17 13:05:40;;;;;;;0.60;0.60;;;11.20;99.90;;;;;;5030891;28;20211;-52
2022/09/17 13:08:34;;;;;;;0.93;0.80;;;11.20;99.90;;;;;;5032509;28;20697;-48
2022/09/17 13:11:24;;;;;;;0.73;0.50;;;11.30;99.90;;;;;;5026274;28;20193;-48
2022/09/17 13:14:00;;;;;;;0.90;0.50;;;11.40;99.90;;;;;;5033146;28;20205;-47
2022/09/17 13:16:33;;;;;;;0.60;0.60;;;11.70;99.90;;;;;;5033126;28;20196;-47